sensor_id;sensor_type;location;lat;lon;timestamp;pressure;altitude;pressure_sealevel;temperature;humidity
1371;BME280;14306;49.942;11.570;2023-05-07T00:00:25;97628.84;;;13.24;80.12
1371;BME280;14306;49.942;11.570;2023-05-07T00:02:58;97633.84;;;13.39;79.79
1371;BME280;14306;49.942;11.570;2023-05-07T00:05:30;97625.53;;;13.44;79.68
1371;BME280;14306;49.942;11.570;2023-05-07T00:08:00;97605.13;;;13.08;79.82
1371;BME280;14306;49.942;11.570;2023-05-07T00:10:28;97609.78;;;13.07;80.33
1371;BME280;14306;49.942;11.570;2023-05-07T00:13:05;97611.63;;;12.98;80.04
1371;BME280;14306;49.942;11.570;2023-05-07T00:15:35;97623.69;;;13.06;80.22
1371;BME280;14306;49.942;11.570;2023-05-07T00:18:04;97631.72;;;13.19;80.42
1371;BME280;14306;49.942;11.570;2023-05-07T00:20:37;97612.97;;;13.09;80.68
1371;BME280;14306;49.942;11.570;2023-05-07T00:23:13;97620.06;;;13.27;80.86
1371;BME280;14306;49.942;11.570;2023-05-07T00:25:43;97635.88;;;13.17;81.49
1371;BME280;14306;49.942;11.570;2023-05-07T00:28:34;97614.25;;;12.81;82.34
1371;BME280;14306;49.942;11.570;2023-05-07T00:31:09;97611.03;;;12.79;82.85
1371;BME280;14306;49.942;11.570;2023-05-07T00:33:42;97594.56;;;12.76;82.15
1371;BME280;14306;49.942;11.570;2023-05-07T00:36:15;97622.78;;;12.88;82.27
1371;BME280;14306;49.942;11.570;2023-05-07T00:38:44;97616.34;;;12.54;82.85
1371;BME280;14306;49.942;11.570;2023-05-07T00:41:12;97606.63;;;12.31;83.13
1371;BME280;14306;49.942;11.570;2023-05-07T00:43:43;97600.41;;;12.30;82.78
1371;BME280;14306;49.942;11.570;2023-05-07T00:46:15;97653.03;;;12.43;83.82
1371;BME280;14306;49.942;11.570;2023-05-07T00:48:47;97648.25;;;12.40;82.91
1371;BME280;14306;49.942;11.570;2023-05-07T00:51:17;97602.06;;;12.18;83.28
1371;BME280;14306;49.942;11.570;2023-05-07T00:53:54;97616.69;;;12.08;83.34
1371;BME280;14306;49.942;11.570;2023-05-07T00:56:23;97600.25;;;11.91;83.69
1371;BME280;14306;49.942;11.570;2023-05-07T00:58:59;97629.09;;;12.45;83.71
1371;BME280;14306;49.942;11.570;2023-05-07T01:01:31;97599.84;;;12.20;83.10
1371;BME280;14306;49.942;11.570;2023-05-07T01:04:01;97605.63;;;12.27;84.58
1371;BME280;14306;49.942;11.570;2023-05-07T01:06:33;97637.41;;;12.48;83.62
1371;BME280;14306;49.942;11.570;2023-05-07T01:09:20;97622.59;;;12.54;83.71
1371;BME280;14306;49.942;11.570;2023-05-07T01:11:53;97592.72;;;12.32;84.29
1371;BME280;14306;49.942;11.570;2023-05-07T01:14:36;97578.09;;;12.42;83.84
1371;BME280;14306;49.942;11.570;2023-05-07T01:17:05;97583.22;;;12.43;83.71
1371;BME280;14306;49.942;11.570;2023-05-07T01:19:39;97619.03;;;12.76;83.04
1371;BME280;14306;49.942;11.570;2023-05-07T01:22:09;97611.25;;;12.83;83.76
1371;BME280;14306;49.942;11.570;2023-05-07T01:24:42;97612.69;;;12.89;83.32
1371;BME280;14306;49.942;11.570;2023-05-07T01:27:18;97575.72;;;12.79;82.76
1371;BME280;14306;49.942;11.570;2023-05-07T01:29:47;97613.13;;;13.04;82.53
1371;BME280;14306;49.942;11.570;2023-05-07T01:32:26;97590.78;;;12.85;81.99
1371;BME280;14306;49.942;11.570;2023-05-07T01:34:57;97625.31;;;13.15;81.44
1371;BME280;14306;49.942;11.570;2023-05-07T01:37:30;97626.59;;;13.18;81.40
1371;BME280;14306;49.942;11.570;2023-05-07T01:40:04;97613.94;;;13.13;82.08
1371;BME280;14306;49.942;11.570;2023-05-07T01:42:37;97622.28;;;13.17;82.70
1371;BME280;14306;49.942;11.570;2023-05-07T01:45:08;97587.44;;;12.88;82.11
1371;BME280;14306;49.942;11.570;2023-05-07T01:47:38;97601.94;;;13.06;82.05
1371;BME280;14306;49.942;11.570;2023-05-07T01:50:09;97589.56;;;13.00;82.09
1371;BME280;14306;49.942;11.570;2023-05-07T01:52:41;97608.66;;;13.08;82.61
1371;BME280;14306;49.942;11.570;2023-05-07T01:55:13;97627.53;;;13.13;82.46
1371;BME280;14306;49.942;11.570;2023-05-07T01:57:43;97614.06;;;12.78;83.74
1371;BME280;14306;49.942;11.570;2023-05-07T02:00:12;97630.78;;;12.93;83.43
1371;BME280;14306;49.942;11.570;2023-05-07T02:02:48;97586.97;;;12.56;82.78
1371;BME280;14306;49.942;11.570;2023-05-07T02:05:20;97610.38;;;12.74;82.53
1371;BME280;14306;49.942;11.570;2023-05-07T02:07:59;97602.19;;;12.65;83.23
1371;BME280;14306;49.942;11.570;2023-05-07T02:10:29;97628.16;;;13.10;82.44
1371;BME280;14306;49.942;11.570;2023-05-07T02:13:00;97590.13;;;12.80;82.74
1371;BME280;14306;49.942;11.570;2023-05-07T02:15:34;97629.22;;;13.01;81.93
1371;BME280;14306;49.942;11.570;2023-05-07T02:18:08;97594.94;;;12.83;82.10
1371;BME280;14306;49.942;11.570;2023-05-07T02:20:42;97592.88;;;12.88;81.61
1371;BME280;14306;49.942;11.570;2023-05-07T02:23:17;97587.44;;;12.58;83.04
1371;BME280;14306;49.942;11.570;2023-05-07T02:25:50;97575.03;;;12.74;82.61
1371;BME280;14306;49.942;11.570;2023-05-07T02:28:22;97608.13;;;12.98;82.82
1371;BME280;14306;49.942;11.570;2023-05-07T02:30:53;97588.63;;;12.65;82.89
1371;BME280;14306;49.942;11.570;2023-05-07T02:33:26;97589.28;;;12.79;82.15
1371;BME280;14306;49.942;11.570;2023-05-07T02:35:55;97595.19;;;12.73;81.72
1371;BME280;14306;49.942;11.570;2023-05-07T02:38:27;97611.91;;;12.88;81.90
1371;BME280;14306;49.942;11.570;2023-05-07T02:40:58;97578.25;;;12.45;82.74
1371;BME280;14306;49.942;11.570;2023-05-07T02:43:32;97590.47;;;12.56;82.90
1371;BME280;14306;49.942;11.570;2023-05-07T02:46:12;97570.75;;;12.42;82.70
1371;BME280;14306;49.942;11.570;2023-05-07T02:48:48;97588.50;;;12.48;83.38
1371;BME280;14306;49.942;11.570;2023-05-07T02:51:20;97608.88;;;12.59;83.93
1371;BME280;14306;49.942;11.570;2023-05-07T02:53:52;97589.66;;;12.25;84.02
1371;BME280;14306;49.942;11.570;2023-05-07T02:56:22;97622.44;;;12.59;84.27
1371;BME280;14306;49.942;11.570;2023-05-07T02:58:54;97576.97;;;12.43;84.04
1371;BME280;14306;49.942;11.570;2023-05-07T03:01:22;97577.56;;;12.31;83.90
1371;BME280;14306;49.942;11.570;2023-05-07T03:03:54;97619.38;;;12.52;84.43
1371;BME280;14306;49.942;11.570;2023-05-07T03:06:24;97589.19;;;12.54;85.10
1371;BME280;14306;49.942;11.570;2023-05-07T03:08:53;97564.69;;;12.45;84.02
1371;BME280;14306;49.942;11.570;2023-05-07T03:11:25;97575.16;;;12.30;84.29
1371;BME280;14306;49.942;11.570;2023-05-07T03:13:59;97570.63;;;12.25;84.71
1371;BME280;14306;49.942;11.570;2023-05-07T03:16:28;97583.97;;;12.35;84.19
1371;BME280;14306;49.942;11.570;2023-05-07T03:18:58;97622.00;;;12.66;84.25
1371;BME280;14306;49.942;11.570;2023-05-07T03:21:30;97609.38;;;12.61;84.31
1371;BME280;14306;49.942;11.570;2023-05-07T03:24:05;97578.47;;;12.05;85.97
1371;BME280;14306;49.942;11.570;2023-05-07T03:26:37;97608.13;;;12.15;86.60
1371;BME280;14306;49.942;11.570;2023-05-07T03:29:06;97586.06;;;11.94;86.29
1371;BME280;14306;49.942;11.570;2023-05-07T03:31:37;97603.22;;;12.03;86.06
1371;BME280;14306;49.942;11.570;2023-05-07T03:34:13;97572.38;;;11.99;85.46
1371;BME280;14306;49.942;11.570;2023-05-07T03:36:45;97615.81;;;11.99;86.02
1371;BME280;14306;49.942;11.570;2023-05-07T03:39:15;97600.94;;;12.19;85.49
1371;BME280;14306;49.942;11.570;2023-05-07T03:41:45;97594.72;;;11.96;85.99
1371;BME280;14306;49.942;11.570;2023-05-07T03:44:15;97604.03;;;12.04;85.12
1371;BME280;14306;49.942;11.570;2023-05-07T03:46:44;97576.50;;;11.97;85.75
1371;BME280;14306;49.942;11.570;2023-05-07T03:49:14;97606.31;;;12.32;85.22
1371;BME280;14306;49.942;11.570;2023-05-07T03:51:44;97583.31;;;12.08;85.40
1371;BME280;14306;49.942;11.570;2023-05-07T03:54:13;97577.56;;;12.31;84.97
1371;BME280;14306;49.942;11.570;2023-05-07T03:56:42;97583.28;;;12.30;84.65
1371;BME280;14306;49.942;11.570;2023-05-07T03:59:15;97629.94;;;12.54;85.40
1371;BME280;14306;49.942;11.570;2023-05-07T04:01:47;97602.47;;;13.25;84.66
1371;BME280;14306;49.942;11.570;2023-05-07T04:04:17;97592.47;;;14.10;83.03
1371;BME280;14306;49.942;11.570;2023-05-07T04:06:47;97606.59;;;14.84;79.74
1371;BME280;14306;49.942;11.570;2023-05-07T04:09:16;97629.84;;;15.65;76.67
1371;BME280;14306;49.942;11.570;2023-05-07T04:11:45;97611.19;;;15.67;75.53
1371;BME280;14306;49.942;11.570;2023-05-07T04:14:15;97629.44;;;17.02;72.70
1371;BME280;14306;49.942;11.570;2023-05-07T04:16:44;97637.22;;;17.84;65.60
1371;BME280;14306;49.942;11.570;2023-05-07T04:19:14;97650.16;;;17.59;64.54
1371;BME280;14306;49.942;11.570;2023-05-07T04:21:43;97648.00;;;17.53;68.48
1371;BME280;14306;49.942;11.570;2023-05-07T04:24:14;97637.53;;;18.73;62.71
1371;BME280;14306;49.942;11.570;2023-05-07T04:26:43;97640.81;;;19.53;57.93
1371;BME280;14306;49.942;11.570;2023-05-07T04:29:17;97642.59;;;19.46;59.49
1371;BME280;14306;49.942;11.570;2023-05-07T04:31:54;97648.09;;;18.71;62.78
1371;BME280;14306;49.942;11.570;2023-05-07T04:34:50;97626.16;;;17.92;63.53
1371;BME280;14306;49.942;11.570;2023-05-07T04:37:22;97641.31;;;18.53;60.73
1371;BME280;14306;49.942;11.570;2023-05-07T04:39:55;97619.59;;;18.09;60.94
1371;BME280;14306;49.942;11.570;2023-05-07T04:42:31;97665.31;;;20.08;55.21
1371;BME280;14306;49.942;11.570;2023-05-07T04:45:01;97666.81;;;19.25;55.80
1371;BME280;14306;49.942;11.570;2023-05-07T04:47:50;97621.50;;;17.69;60.58
1371;BME280;14306;49.942;11.570;2023-05-07T04:50:32;97670.81;;;17.69;61.33
1371;BME280;14306;49.942;11.570;2023-05-07T04:53:08;97659.22;;;17.15;62.97
1371;BME280;14306;49.942;11.570;2023-05-07T04:55:38;97633.28;;;16.89;62.92
1371;BME280;14306;49.942;11.570;2023-05-07T04:58:11;97650.84;;;16.88;63.61
1371;BME280;14306;49.942;11.570;2023-05-07T05:00:46;97690.97;;;16.84;64.40
1371;BME280;14306;49.942;11.570;2023-05-07T05:03:20;97659.28;;;17.51;62.36
1371;BME280;14306;49.942;11.570;2023-05-07T05:06:02;97686.91;;;18.06;62.08
1371;BME280;14306;49.942;11.570;2023-05-07T05:08:38;97686.03;;;19.25;57.29
1371;BME280;14306;49.942;11.570;2023-05-07T05:11:12;97697.81;;;19.87;56.12
1371;BME280;14306;49.942;11.570;2023-05-07T05:13:44;97722.47;;;20.49;53.13
1371;BME280;14306;49.942;11.570;2023-05-07T05:16:21;97711.00;;;20.47;51.91
1371;BME280;14306;49.942;11.570;2023-05-07T05:18:53;97722.34;;;20.61;52.10
1371;BME280;14306;49.942;11.570;2023-05-07T05:21:22;97751.16;;;21.02;50.75
1371;BME280;14306;49.942;11.570;2023-05-07T05:23:53;97738.94;;;20.84;50.97
1371;BME280;14306;49.942;11.570;2023-05-07T05:26:24;97743.44;;;21.11;50.39
1371;BME280;14306;49.942;11.570;2023-05-07T05:28:54;97764.69;;;21.93;48.43
1371;BME280;14306;49.942;11.570;2023-05-07T05:31:24;97775.28;;;22.63;46.96
1371;BME280;14306;49.942;11.570;2023-05-07T05:33:56;97772.63;;;23.29;44.73
1371;BME280;14306;49.942;11.570;2023-05-07T05:36:27;97758.72;;;22.14;46.43
1371;BME280;14306;49.942;11.570;2023-05-07T05:38:58;97786.94;;;23.74;44.31
1371;BME280;14306;49.942;11.570;2023-05-07T05:41:29;97785.09;;;24.29;40.75
1371;BME280;14306;49.942;11.570;2023-05-07T05:44:00;97760.34;;;23.26;43.12
1371;BME280;14306;49.942;11.570;2023-05-07T05:46:32;97785.50;;;24.27;42.12
1371;BME280;14306;49.942;11.570;2023-05-07T05:49:03;97790.81;;;24.03;41.46
1371;BME280;14306;49.942;11.570;2023-05-07T05:51:32;97755.66;;;23.30;41.83
1371;BME280;14306;49.942;11.570;2023-05-07T05:54:02;97786.03;;;24.00;41.56
1371;BME280;14306;49.942;11.570;2023-05-07T05:56:31;97778.22;;;24.09;41.17
1371;BME280;14306;49.942;11.570;2023-05-07T05:59:00;97753.09;;;23.88;41.45
1371;BME280;14306;49.942;11.570;2023-05-07T06:01:30;97799.16;;;25.14;38.40
1371;BME280;14306;49.942;11.570;2023-05-07T06:03:59;97817.63;;;25.82;38.30
1371;BME280;14306;49.942;11.570;2023-05-07T06:06:31;97877.00;;;27.98;33.82
1371;BME280;14306;49.942;11.570;2023-05-07T06:09:00;97784.25;;;25.54;37.04
1371;BME280;14306;49.942;11.570;2023-05-07T06:11:31;97841.94;;;26.38;36.56
1371;BME280;14306;49.942;11.570;2023-05-07T06:14:01;97894.78;;;28.22;33.11
1371;BME280;14306;49.942;11.570;2023-05-07T06:16:32;97841.94;;;26.48;36.34
1371;BME280;14306;49.942;11.570;2023-05-07T06:19:00;97847.84;;;27.17;34.80
1371;BME280;14306;49.942;11.570;2023-05-07T06:21:30;97918.66;;;28.84;31.83
1371;BME280;14306;49.942;11.570;2023-05-07T06:23:58;97915.31;;;29.00;31.63
1371;BME280;14306;49.942;11.570;2023-05-07T06:26:27;97920.94;;;29.41;31.60
1371;BME280;14306;49.942;11.570;2023-05-07T06:28:55;97909.75;;;29.03;32.57
1371;BME280;14306;49.942;11.570;2023-05-07T06:31:29;97960.06;;;30.98;28.62
1371;BME280;14306;49.942;11.570;2023-05-07T06:33:59;97969.16;;;30.79;28.61
1371;BME280;14306;49.942;11.570;2023-05-07T06:36:29;97965.72;;;31.17;28.59
1371;BME280;14306;49.942;11.570;2023-05-07T06:38:58;98003.59;;;32.53;27.02
1371;BME280;14306;49.942;11.570;2023-05-07T06:41:28;98071.47;;;34.31;24.63
1371;BME280;14306;49.942;11.570;2023-05-07T06:43:57;98034.56;;;33.85;24.60
1371;BME280;14306;49.942;11.570;2023-05-07T06:46:27;97906.81;;;29.92;29.81
1371;BME280;14306;49.942;11.570;2023-05-07T06:48:59;97937.69;;;30.41;29.06
1371;BME280;14306;49.942;11.570;2023-05-07T06:51:29;97947.22;;;30.74;28.78
1371;BME280;14306;49.942;11.570;2023-05-07T06:53:58;97981.72;;;32.25;27.44
1371;BME280;14306;49.942;11.570;2023-05-07T06:56:27;97959.06;;;30.85;28.34
1371;BME280;14306;49.942;11.570;2023-05-07T06:58:56;97930.28;;;30.31;28.93
1371;BME280;14306;49.942;11.570;2023-05-07T07:01:25;97903.56;;;29.63;30.62
1371;BME280;14306;49.942;11.570;2023-05-07T07:03:57;97877.19;;;28.32;32.00
1371;BME280;14306;49.942;11.570;2023-05-07T07:06:26;97967.78;;;31.40;28.30
1371;BME280;14306;49.942;11.570;2023-05-07T07:08:56;98003.56;;;32.73;26.46
1371;BME280;14306;49.942;11.570;2023-05-07T07:11:28;97985.53;;;32.15;27.40
1371;BME280;14306;49.942;11.570;2023-05-07T07:13:57;97916.72;;;30.26;29.62
1371;BME280;14306;49.942;11.570;2023-05-07T07:16:27;97973.78;;;32.43;26.73
1371;BME280;14306;49.942;11.570;2023-05-07T07:18:57;97936.88;;;31.43;27.78
1371;BME280;14306;49.942;11.570;2023-05-07T07:21:30;97893.28;;;29.16;31.16
1371;BME280;14306;49.942;11.570;2023-05-07T07:24:01;97889.84;;;28.98;31.57
1371;BME280;14306;49.942;11.570;2023-05-07T07:26:29;97830.81;;;26.97;34.68
1371;BME280;14306;49.942;11.570;2023-05-07T07:28:58;97826.84;;;26.53;35.35
1371;BME280;14306;49.942;11.570;2023-05-07T07:31:28;97828.81;;;26.00;36.57
1371;BME280;14306;49.942;11.570;2023-05-07T07:34:03;97860.19;;;27.26;34.66
1371;BME280;14306;49.942;11.570;2023-05-07T07:36:32;97832.41;;;26.39;36.06
1371;BME280;14306;49.942;11.570;2023-05-07T07:39:13;97810.81;;;25.55;37.21
1371;BME280;14306;49.942;11.570;2023-05-07T07:41:47;97819.69;;;26.41;36.38
1371;BME280;14306;49.942;11.570;2023-05-07T07:44:21;97840.28;;;27.31;34.82
1371;BME280;14306;49.942;11.570;2023-05-07T07:46:51;97834.00;;;26.50;36.48
1371;BME280;14306;49.942;11.570;2023-05-07T07:49:20;97839.91;;;27.12;35.53
1371;BME280;14306;49.942;11.570;2023-05-07T07:51:48;97818.88;;;26.93;35.32
1371;BME280;14306;49.942;11.570;2023-05-07T07:54:20;97853.78;;;27.33;35.27
1371;BME280;14306;49.942;11.570;2023-05-07T07:56:49;97806.63;;;26.42;36.63
1371;BME280;14306;49.942;11.570;2023-05-07T07:59:18;97819.19;;;27.20;35.20
1371;BME280;14306;49.942;11.570;2023-05-07T08:01:49;97802.16;;;27.04;35.61
1371;BME280;14306;49.942;11.570;2023-05-07T08:04:21;97842.66;;;27.33;35.29
1371;BME280;14306;49.942;11.570;2023-05-07T08:06:50;97835.41;;;27.60;34.77
1371;BME280;14306;49.942;11.570;2023-05-07T08:09:22;97811.75;;;26.22;36.66
1371;BME280;14306;49.942;11.570;2023-05-07T08:11:51;97799.38;;;25.74;37.93
1371;BME280;14306;49.942;11.570;2023-05-07T08:14:20;97816.44;;;25.83;38.09
1371;BME280;14306;49.942;11.570;2023-05-07T08:16:50;97805.81;;;26.13;37.51
1371;BME280;14306;49.942;11.570;2023-05-07T08:19:18;97789.41;;;25.55;38.59
1371;BME280;14306;49.942;11.570;2023-05-07T08:21:47;97845.44;;;27.19;35.88
1371;BME280;14306;49.942;11.570;2023-05-07T08:24:18;97857.75;;;27.32;36.04
1371;BME280;14306;49.942;11.570;2023-05-07T08:26:52;97820.06;;;26.96;36.21
1371;BME280;14306;49.942;11.570;2023-05-07T08:29:20;97820.50;;;26.91;36.33
1371;BME280;14306;49.942;11.570;2023-05-07T08:31:48;97843.78;;;27.53;35.29
1371;BME280;14306;49.942;11.570;2023-05-07T08:34:17;97830.72;;;27.39;35.43
1371;BME280;14306;49.942;11.570;2023-05-07T08:36:46;97862.50;;;27.45;35.99
1371;BME280;14306;49.942;11.570;2023-05-07T08:39:15;97865.69;;;28.23;34.50
1371;BME280;14306;49.942;11.570;2023-05-07T08:41:45;97833.50;;;27.39;35.40
1371;BME280;14306;49.942;11.570;2023-05-07T08:44:18;97836.78;;;26.50;37.15
1371;BME280;14306;49.942;11.570;2023-05-07T08:46:52;97782.47;;;25.11;39.34
1371;BME280;14306;49.942;11.570;2023-05-07T08:49:22;97830.00;;;26.90;36.62
1371;BME280;14306;49.942;11.570;2023-05-07T08:51:52;97777.31;;;25.09;39.06
1371;BME280;14306;49.942;11.570;2023-05-07T08:54:22;97792.31;;;26.12;37.61
1371;BME280;14306;49.942;11.570;2023-05-07T08:56:50;97755.16;;;25.16;39.15
1371;BME280;14306;49.942;11.570;2023-05-07T08:59:21;97858.41;;;27.71;35.40
1371;BME280;14306;49.942;11.570;2023-05-07T09:01:49;97833.56;;;27.01;36.22
1371;BME280;14306;49.942;11.570;2023-05-07T09:04:19;97856.78;;;27.80;35.05
1371;BME280;14306;49.942;11.570;2023-05-07T09:06:49;97896.00;;;29.60;31.59
1371;BME280;14306;49.942;11.570;2023-05-07T09:09:18;97931.19;;;30.21;31.13
1371;BME280;14306;49.942;11.570;2023-05-07T09:11:48;97871.94;;;28.44;33.39
1371;BME280;14306;49.942;11.570;2023-05-07T09:14:17;97914.41;;;29.54;31.42
1371;BME280;14306;49.942;11.570;2023-05-07T09:16:52;97867.56;;;28.43;32.82
1371;BME280;14306;49.942;11.570;2023-05-07T09:19:23;97872.44;;;28.80;31.73
1371;BME280;14306;49.942;11.570;2023-05-07T09:21:58;97882.69;;;28.93;31.61
1371;BME280;14306;49.942;11.570;2023-05-07T09:24:28;97790.22;;;25.66;36.32
1371;BME280;14306;49.942;11.570;2023-05-07T09:27:05;97811.38;;;26.48;36.05
1371;BME280;14306;49.942;11.570;2023-05-07T09:29:37;97830.84;;;26.80;35.57
1371;BME280;14306;49.942;11.570;2023-05-07T09:32:08;97828.94;;;27.77;34.09
1371;BME280;14306;49.942;11.570;2023-05-07T09:34:37;97883.13;;;28.37;32.91
1371;BME280;14306;49.942;11.570;2023-05-07T09:37:13;97852.69;;;28.02;33.63
1371;BME280;14306;49.942;11.570;2023-05-07T09:39:44;97794.31;;;26.29;35.76
1371;BME280;14306;49.942;11.570;2023-05-07T09:42:14;97774.59;;;25.23;37.77
1371;BME280;14306;49.942;11.570;2023-05-07T09:44:43;97826.47;;;26.54;36.10
1371;BME280;14306;49.942;11.570;2023-05-07T09:47:18;97766.13;;;24.88;38.24
1371;BME280;14306;49.942;11.570;2023-05-07T09:49:50;97753.63;;;24.04;40.72
1371;BME280;14306;49.942;11.570;2023-05-07T09:52:23;97760.13;;;24.76;39.25
1371;BME280;14306;49.942;11.570;2023-05-07T09:54:58;97781.03;;;25.34;38.71
1371;BME280;14306;49.942;11.570;2023-05-07T09:57:30;97782.22;;;25.33;38.27
1371;BME280;14306;49.942;11.570;2023-05-07T10:00:03;97805.41;;;26.25;36.78
1371;BME280;14306;49.942;11.570;2023-05-07T10:02:38;97810.91;;;25.90;37.62
1371;BME280;14306;49.942;11.570;2023-05-07T10:05:14;97847.06;;;27.16;35.44
1371;BME280;14306;49.942;11.570;2023-05-07T10:07:43;97771.97;;;25.55;38.07
1371;BME280;14306;49.942;11.570;2023-05-07T10:10:13;97828.06;;;26.62;36.28
1371;BME280;14306;49.942;11.570;2023-05-07T10:12:43;97803.72;;;25.78;37.46
1371;BME280;14306;49.942;11.570;2023-05-07T10:15:12;97786.69;;;25.87;37.27
1371;BME280;14306;49.942;11.570;2023-05-07T10:17:44;97831.16;;;27.06;35.53
1371;BME280;14306;49.942;11.570;2023-05-07T10:20:14;97818.13;;;26.68;35.79
1371;BME280;14306;49.942;11.570;2023-05-07T10:22:47;97830.38;;;27.09;35.38
1371;BME280;14306;49.942;11.570;2023-05-07T10:25:21;97804.09;;;25.52;37.90
1371;BME280;14306;49.942;11.570;2023-05-07T10:27:53;97842.63;;;28.19;33.66
1371;BME280;14306;49.942;11.570;2023-05-07T10:30:35;97803.03;;;26.13;36.56
1371;BME280;14306;49.942;11.570;2023-05-07T10:33:10;97817.69;;;26.87;36.07
1371;BME280;14306;49.942;11.570;2023-05-07T10:35:42;97827.22;;;26.93;35.59
1371;BME280;14306;49.942;11.570;2023-05-07T10:38:14;97893.16;;;29.97;30.28
1371;BME280;14306;49.942;11.570;2023-05-07T10:40:44;97878.53;;;29.53;31.27
1371;BME280;14306;49.942;11.570;2023-05-07T10:43:24;97899.22;;;29.92;30.91
1371;BME280;14306;49.942;11.570;2023-05-07T10:46:14;97846.31;;;28.05;33.09
1371;BME280;14306;49.942;11.570;2023-05-07T10:49:08;97892.97;;;29.81;30.72
1371;BME280;14306;49.942;11.570;2023-05-07T10:51:42;97886.25;;;30.05;30.41
1371;BME280;14306;49.942;11.570;2023-05-07T10:57:42;97820.28;;;27.54;34.17
1371;BME280;14306;49.942;11.570;2023-05-07T11:00:42;97836.03;;;27.92;33.75
1371;BME280;14306;49.942;11.570;2023-05-07T11:03:13;97791.13;;;26.83;34.75
1371;BME280;14306;49.942;11.570;2023-05-07T11:05:46;97839.47;;;28.17;33.44
1371;BME280;14306;49.942;11.570;2023-05-07T11:08:16;97814.88;;;27.08;35.09
1371;BME280;14306;49.942;11.570;2023-05-07T11:10:50;97798.69;;;26.65;32.72
1371;BME280;14306;49.942;11.570;2023-05-07T11:13:45;97779.59;;;26.53;31.66
1371;BME280;14306;49.942;11.570;2023-05-07T11:16:18;97820.72;;;27.49;31.59
1371;BME280;14306;49.942;11.570;2023-05-07T11:18:50;97816.09;;;26.97;33.24
1371;BME280;14306;49.942;11.570;2023-05-07T11:21:34;97781.59;;;26.59;34.56
1371;BME280;14306;49.942;11.570;2023-05-07T11:24:05;97847.00;;;28.23;32.09
1371;BME280;14306;49.942;11.570;2023-05-07T11:26:44;97830.63;;;28.29;32.04
1371;BME280;14306;49.942;11.570;2023-05-07T11:29:16;97883.59;;;28.83;30.96
1371;BME280;14306;49.942;11.570;2023-05-07T11:31:52;97848.47;;;28.35;30.18
1371;BME280;14306;49.942;11.570;2023-05-07T11:34:26;97819.97;;;28.13;30.17
1371;BME280;14306;49.942;11.570;2023-05-07T11:37:01;97821.75;;;28.41;29.55
1371;BME280;14306;49.942;11.570;2023-05-07T11:39:34;97801.03;;;26.38;33.80
1371;BME280;14306;49.942;11.570;2023-05-07T11:42:06;97799.41;;;27.00;32.90
1371;BME280;14306;49.942;11.570;2023-05-07T11:44:42;97787.47;;;25.70;35.03
1371;BME280;14306;49.942;11.570;2023-05-07T11:47:17;97814.63;;;27.75;31.81
1371;BME280;14306;49.942;11.570;2023-05-07T11:49:50;97874.63;;;29.06;30.35
1371;BME280;14306;49.942;11.570;2023-05-07T11:52:22;97821.59;;;28.14;31.22
1371;BME280;14306;49.942;11.570;2023-05-07T11:54:55;97793.38;;;27.30;32.53
1371;BME280;14306;49.942;11.570;2023-05-07T11:57:25;97791.13;;;26.41;33.02
1371;BME280;14306;49.942;11.570;2023-05-07T11:59:55;97786.63;;;27.17;32.07
1371;BME280;14306;49.942;11.570;2023-05-07T12:02:25;97802.97;;;27.11;32.06
1371;BME280;14306;49.942;11.570;2023-05-07T12:05:03;97774.75;;;26.95;32.30
1371;BME280;14306;49.942;11.570;2023-05-07T12:07:34;97775.66;;;26.08;33.77
1371;BME280;14306;49.942;11.570;2023-05-07T12:10:05;97742.66;;;25.78;33.68
1371;BME280;14306;49.942;11.570;2023-05-07T12:12:40;97796.66;;;26.86;32.46
1371;BME280;14306;49.942;11.570;2023-05-07T12:15:13;97779.63;;;26.42;32.72
1371;BME280;14306;49.942;11.570;2023-05-07T12:17:45;97751.38;;;25.70;32.03
1371;BME280;14306;49.942;11.570;2023-05-07T12:20:14;97750.28;;;26.10;32.74
1371;BME280;14306;49.942;11.570;2023-05-07T12:22:47;97787.16;;;26.73;32.88
1371;BME280;14306;49.942;11.570;2023-05-07T12:25:19;97785.91;;;26.99;32.07
1371;BME280;14306;49.942;11.570;2023-05-07T12:27:51;97796.81;;;27.55;30.84
1371;BME280;14306;49.942;11.570;2023-05-07T12:30:29;97799.06;;;26.77;32.17
1371;BME280;14306;49.942;11.570;2023-05-07T12:32:58;97767.72;;;26.07;33.25
1371;BME280;14306;49.942;11.570;2023-05-07T12:35:28;97733.69;;;24.92;35.03
1371;BME280;14306;49.942;11.570;2023-05-07T12:37:59;97734.13;;;25.08;34.35
1371;BME280;14306;49.942;11.570;2023-05-07T12:40:39;97727.38;;;25.02;34.64
1371;BME280;14306;49.942;11.570;2023-05-07T12:43:15;97731.19;;;26.05;33.37
1371;BME280;14306;49.942;11.570;2023-05-07T12:45:47;97731.56;;;25.75;33.89
1371;BME280;14306;49.942;11.570;2023-05-07T12:48:17;97731.22;;;26.33;33.03
1371;BME280;14306;49.942;11.570;2023-05-07T12:50:50;97742.72;;;26.17;33.24
1371;BME280;14306;49.942;11.570;2023-05-07T12:53:21;97747.50;;;26.10;33.28
1371;BME280;14306;49.942;11.570;2023-05-07T12:55:54;97750.25;;;26.45;32.80
1371;BME280;14306;49.942;11.570;2023-05-07T12:58:27;97740.34;;;26.23;32.81
1371;BME280;14306;49.942;11.570;2023-05-07T13:00:59;97784.53;;;27.49;31.19
1371;BME280;14306;49.942;11.570;2023-05-07T13:03:30;97769.53;;;27.15;31.57
1371;BME280;14306;49.942;11.570;2023-05-07T13:06:01;97758.56;;;26.34;32.68
1371;BME280;14306;49.942;11.570;2023-05-07T13:08:38;97764.13;;;26.59;33.11
1371;BME280;14306;49.942;11.570;2023-05-07T13:11:09;97707.59;;;25.11;35.00
1371;BME280;14306;49.942;11.570;2023-05-07T13:13:41;97708.84;;;25.27;34.60
1371;BME280;14306;49.942;11.570;2023-05-07T13:16:12;97695.88;;;24.60;35.74
1371;BME280;14306;49.942;11.570;2023-05-07T13:18:41;97727.25;;;26.02;33.98
1371;BME280;14306;49.942;11.570;2023-05-07T13:21:16;97687.50;;;25.35;34.90
1371;BME280;14306;49.942;11.570;2023-05-07T13:23:46;97708.13;;;25.48;34.25
1371;BME280;14306;49.942;11.570;2023-05-07T13:26:18;97710.53;;;25.84;33.77
1371;BME280;14306;49.942;11.570;2023-05-07T13:28:53;97670.00;;;25.24;34.39